PZO weather

General Manuel Carlos Piar International Airport
Puerto Ordaz-Ciudad Guayana, Bolívar, Venezuela

Public forecast

Using degrees Celsius for public forecast. Weather courtesy of forecast.io.

METAR (pilot weather report)

Report is more than 6 hours old.

Retrieved 2016/04/05 16:00 UTC (3 years ago):

SVPR 051600Z 02008KT 9999 BKN020 XX/XX Q1016

TAF (pilot weather forecast)

Forecast is more than 12 hours old.

Closest forecast is General José Antonio Anzoategui International Airport, 158.4 nm (293.3 km) NW. Retrieved 2019/09/20 00:00 UTC (1 day ago):

TAF SVBC 202200Z 2100/2200 27007KT 9999 BNK016 TX32/17Z TN22/05Z BECMG 2101/2105 09005KT BKN016